Time;durP1;ratioP1;P1;durP2;ratioP2;P2;SDS_P1;SDS_P2;PMS_P1;PMS_P2;Temp;Humidity;BMP_temperature;BMP_pressure;BME280_temperature;BME280_humidity;BME280_pressure;Samples;Min_cycle;Max_cycle;Signal;HPM_P1;HPM_P2
2023/11/16 00:02:15;;;;;;;2.07;1.00;;;;;;;8.46;100.00;96577.00;5036836;28;20209;-67
2023/11/16 00:04:42;;;;;;;2.17;1.17;;;;;;;8.48;100.00;96578.50;5035889;28;20231;-66
2023/11/16 00:07:09;;;;;;;2.87;1.43;;;;;;;8.43;100.00;96573.88;5036693;28;20243;-67
2023/11/16 00:09:36;;;;;;;1.93;1.17;;;;;;;8.48;100.00;96574.22;5037429;28;20578;-66
2023/11/16 00:12:03;;;;;;;1.43;0.87;;;;;;;8.25;100.00;96573.94;5036180;28;20205;-66
2023/11/16 00:14:31;;;;;;;2.53;1.13;;;;;;;8.62;100.00;96577.09;5036132;28;20221;-66
2023/11/16 00:16:58;;;;;;;1.90;1.37;;;;;;;8.03;100.00;96573.56;5036631;28;20208;-66
2023/11/16 00:19:25;;;;;;;1.60;1.30;;;;;;;8.22;100.00;96562.91;5036842;28;20255;-66
2023/11/16 00:21:51;;;;;;;2.17;1.13;;;;;;;8.20;100.00;96570.13;5035700;28;20209;-66
2023/11/16 00:24:18;;;;;;;1.43;1.10;;;;;;;8.12;100.00;96567.41;5035742;28;20229;-67
2023/11/16 00:26:45;;;;;;;2.57;1.50;;;;;;;8.04;100.00;96575.22;5035741;28;20236;-65
2023/11/16 00:29:12;;;;;;;1.80;1.43;;;;;;;7.86;100.00;96574.44;5036345;28;20205;-66
2023/11/16 00:31:39;;;;;;;2.10;1.30;;;;;;;7.96;100.00;96573.38;5036578;28;20216;-66
2023/11/16 00:34:06;;;;;;;4.13;1.33;;;;;;;7.96;100.00;96583.84;5035214;28;20734;-66
2023/11/16 00:36:33;;;;;;;2.93;1.57;;;;;;;8.02;100.00;96575.38;5036027;28;20681;-66
2023/11/16 00:38:59;;;;;;;9.20;1.53;;;;;;;8.17;100.00;96571.25;5036605;28;20205;-66
2023/11/16 00:41:26;;;;;;;3.00;1.37;;;;;;;8.08;100.00;96569.53;5036208;28;20868;-66
2023/11/16 00:43:53;;;;;;;4.57;1.77;;;;;;;8.03;100.00;96565.69;5035491;28;20237;-66
2023/11/16 00:46:21;;;;;;;2.60;1.40;;;;;;;8.01;100.00;96557.16;5036029;28;20239;-66
2023/11/16 00:48:50;;;;;;;3.83;1.57;;;;;;;8.14;100.00;96562.88;5036724;28;20232;-67
2023/11/16 00:51:16;;;;;;;4.50;1.53;;;;;;;7.94;100.00;96558.75;5035634;28;20692;-67
2023/11/16 00:53:43;;;;;;;10.67;1.40;;;;;;;7.99;100.00;96562.59;5036338;28;20228;-67
2023/11/16 00:56:10;;;;;;;2.03;1.40;;;;;;;8.10;100.00;96558.88;5036358;28;20197;-66
2023/11/16 00:58:37;;;;;;;2.40;1.40;;;;;;;8.09;100.00;96560.66;5035593;28;20205;-67
2023/11/16 01:01:05;;;;;;;3.63;1.17;;;;;;;8.24;100.00;96553.09;5035650;28;20205;-66
2023/11/16 01:03:31;;;;;;;3.10;1.50;;;;;;;8.15;100.00;96549.59;5036249;28;20208;-67
2023/11/16 01:05:59;;;;;;;3.03;1.07;;;;;;;8.30;100.00;96550.66;5034689;28;20233;-67
2023/11/16 01:08:29;;;;;;;2.10;1.30;;;;;;;8.17;100.00;96562.53;5035678;28;20209;-66
2023/11/16 01:10:57;;;;;;;1.97;1.20;;;;;;;8.07;100.00;96564.41;5036153;28;20232;-67
2023/11/16 01:13:28;;;;;;;1.13;0.90;;;;;;;8.14;100.00;96562.88;5035560;28;20209;-66
2023/11/16 01:15:57;;;;;;;1.57;1.13;;;;;;;8.15;100.00;96561.91;5035169;28;20291;-67
2023/11/16 01:18:26;;;;;;;2.73;1.40;;;;;;;8.08;100.00;96560.81;5035789;28;20292;-68
2023/11/16 01:20:57;;;;;;;3.73;1.40;;;;;;;8.12;100.00;96559.53;5035734;28;20197;-66
2023/11/16 01:23:27;;;;;;;4.47;1.13;;;;;;;8.12;100.00;96557.75;5035315;28;20292;-66
2023/11/16 01:25:54;;;;;;;1.77;1.47;;;;;;;8.08;100.00;96564.28;5035318;28;20279;-67
2023/11/16 01:28:21;;;;;;;2.60;1.00;;;;;;;8.21;100.00;96571.75;5035331;28;20209;-67
2023/11/16 01:30:48;;;;;;;1.73;1.30;;;;;;;8.04;100.00;96562.09;5035651;28;20565;-66
2023/11/16 01:33:14;;;;;;;1.77;1.13;;;;;;;8.17;100.00;96559.91;5035083;28;20205;-66
2023/11/16 01:35:41;;;;;;;3.90;1.20;;;;;;;7.94;100.00;96559.59;5035447;28;20202;-66
2023/11/16 01:38:07;;;;;;;2.27;1.07;;;;;;;8.11;100.00;96560.53;5035751;28;20209;-66
2023/11/16 01:40:36;;;;;;;4.07;1.80;;;;;;;8.31;100.00;96552.31;5036898;28;20227;-67
2023/11/16 01:43:04;;;;;;;5.90;1.30;;;;;;;8.17;100.00;96552.03;5039262;28;20281;-65
2023/11/16 01:45:32;;;;;;;2.33;1.33;;;;;;;7.99;100.00;96546.00;5038523;28;20283;-66
2023/11/16 01:48:01;;;;;;;1.60;1.17;;;;;;;8.11;100.00;96544.78;5039155;28;20208;-67
2023/11/16 01:50:29;;;;;;;1.50;1.20;;;;;;;8.08;100.00;96543.28;5039621;28;20224;-65
2023/11/16 01:53:04;;;;;;;2.07;1.20;;;;;;;8.07;100.00;96539.00;5039456;28;20209;-66
2023/11/16 01:55:31;;;;;;;3.20;1.17;;;;;;;7.91;100.00;96543.31;5038059;28;20722;-66
2023/11/16 01:58:03;;;;;;;3.03;1.33;;;;;;;8.09;100.00;96536.22;5038673;28;20201;-66
2023/11/16 02:00:30;;;;;;;2.63;1.60;;;;;;;7.96;100.00;96536.63;5039419;28;20718;-66
2023/11/16 02:03:01;;;;;;;2.80;1.07;;;;;;;7.96;100.00;96538.44;5039041;28;20229;-67
2023/11/16 02:05:27;;;;;;;3.50;1.20;;;;;;;7.72;100.00;96546.13;5038319;28;20573;-66
2023/11/16 02:07:54;;;;;;;3.97;1.47;;;;;;;7.94;100.00;96538.59;5038837;28;20205;-66
2023/11/16 02:10:20;;;;;;;4.73;1.40;;;;;;;7.78;100.00;96529.78;5037277;28;20216;-67
2023/11/16 02:12:52;;;;;;;2.93;1.50;;;;;;;8.12;100.00;96539.38;5038859;28;20212;-66
2023/11/16 02:15:20;;;;;;;4.00;1.60;;;;;;;8.17;100.00;96534.53;5038836;28;20233;-67
2023/11/16 02:17:46;;;;;;;2.70;1.20;;;;;;;8.17;100.00;96536.31;5038772;28;20216;-66
2023/11/16 02:20:13;;;;;;;1.73;1.20;;;;;;;8.36;100.00;96536.09;5037979;28;20682;-65
2023/11/16 02:22:40;;;;;;;2.13;1.10;;;;;;;8.19;100.00;96542.22;5040184;28;20205;-66
2023/11/16 02:25:11;;;;;;;3.40;1.77;;;;;;;8.20;100.00;96543.88;5037740;28;20239;-67
2023/11/16 02:27:37;;;;;;;5.47;1.63;;;;;;;8.08;100.00;96537.19;5038738;28;20224;-67
2023/11/16 02:30:05;;;;;;;3.40;1.27;;;;;;;8.04;100.00;96539.31;5038196;28;20209;-67
2023/11/16 02:32:32;;;;;;;4.83;1.70;;;;;;;8.03;100.00;96532.44;5038974;28;20475;-65
2023/11/16 02:34:58;;;;;;;3.63;1.80;;;;;;;8.08;100.00;96540.66;5037006;28;20228;-66
2023/11/16 02:37:24;;;;;;;4.43;1.87;;;;;;;8.01;100.00;96539.63;5038588;28;20202;-66
2023/11/16 02:39:51;;;;;;;2.53;1.40;;;;;;;8.04;100.00;96528.00;5038904;28;21169;-66
2023/11/16 02:42:19;;;;;;;1.60;1.20;;;;;;;8.15;100.00;96540.91;5038500;28;20197;-67
2023/11/16 02:44:47;;;;;;;1.13;1.03;;;;;;;8.17;100.00;96533.69;5037625;28;20229;-67
2023/11/16 02:47:14;;;;;;;2.63;1.30;;;;;;;8.16;100.00;96527.63;5038137;28;20229;-66
2023/11/16 02:49:42;;;;;;;2.43;1.50;;;;;;;8.15;100.00;96533.84;5038208;28;20209;-65
2023/11/16 02:52:10;;;;;;;2.30;1.10;;;;;;;7.95;100.00;96534.16;5037713;28;21261;-66
2023/11/16 02:54:37;;;;;;;3.57;1.70;;;;;;;8.08;100.00;96530.16;5038058;28;20233;-66
2023/11/16 02:57:06;;;;;;;3.37;1.60;;;;;;;8.11;100.00;96529.03;5038180;28;20710;-66
2023/11/16 02:59:34;;;;;;;2.57;1.40;;;;;;;8.04;100.00;96517.50;5037858;28;20209;-67
2023/11/16 03:02:04;;;;;;;3.40;1.50;;;;;;;7.91;100.00;96523.13;5037678;28;20212;-67
2023/11/16 03:04:30;;;;;;;2.70;1.40;;;;;;;7.79;100.00;96523.56;5037332;28;20271;-66
2023/11/16 03:06:56;;;;;;;2.73;1.87;;;;;;;7.56;100.00;96521.56;5037529;28;20224;-67
2023/11/16 03:09:23;;;;;;;4.00;1.63;;;;;;;7.73;100.00;96529.41;5038343;28;20201;-67
2023/11/16 03:11:49;;;;;;;2.73;1.60;;;;;;;7.81;100.00;96532.09;5037660;28;20224;-67
2023/11/16 03:14:16;;;;;;;2.00;1.40;;;;;;;7.90;100.00;96520.69;5036905;28;20232;-67
2023/11/16 03:16:48;;;;;;;2.77;1.67;;;;;;;8.22;100.00;96524.38;5037785;28;20197;-66
2023/11/16 03:19:14;;;;;;;3.10;1.43;;;;;;;7.98;100.00;96524.19;5035760;28;20200;-67
2023/11/16 03:21:41;;;;;;;5.27;1.43;;;;;;;8.00;100.00;96519.59;5037096;28;20212;-67
2023/11/16 03:24:09;;;;;;;4.70;1.50;;;;;;;8.14;100.00;96524.31;5036379;28;20224;-66
2023/11/16 03:26:36;;;;;;;4.50;1.43;;;;;;;8.09;100.00;96533.59;5037958;28;20303;-66
2023/11/16 03:29:04;;;;;;;2.50;1.40;;;;;;;8.12;100.00;96528.88;5036912;28;20205;-66
2023/11/16 03:31:33;;;;;;;5.23;1.97;;;;;;;8.04;100.00;96531.44;5037295;28;20669;-67
2023/11/16 03:34:01;;;;;;;1.43;1.10;;;;;;;8.16;100.00;96524.16;5036981;28;20316;-66
2023/11/16 03:36:27;;;;;;;1.73;1.07;;;;;;;8.12;100.00;96528.03;5037370;28;20194;-67
2023/11/16 03:38:54;;;;;;;2.97;1.30;;;;;;;7.98;100.00;96513.69;5037450;28;20213;-66
2023/11/16 03:41:21;;;;;;;2.93;1.33;;;;;;;7.92;100.00;96523.97;5036576;28;20205;-67
2023/11/16 03:43:47;;;;;;;2.40;1.40;;;;;;;8.00;100.00;96524.03;5037332;28;20307;-67
2023/11/16 03:46:14;;;;;;;2.53;1.67;;;;;;;7.91;100.00;96523.13;5036547;28;20605;-66
2023/11/16 03:48:41;;;;;;;2.87;1.60;;;;;;;7.94;100.00;96519.38;5037520;28;20207;-67
2023/11/16 03:51:09;;;;;;;2.77;1.30;;;;;;;7.95;100.00;96518.41;5036921;28;20205;-67
2023/11/16 03:53:36;;;;;;;2.50;1.33;;;;;;;7.82;100.00;96511.94;5037210;28;20225;-67
2023/11/16 03:56:04;;;;;;;4.07;1.63;;;;;;;7.89;100.00;96511.16;5036185;28;20198;-66
2023/11/16 03:58:30;;;;;;;2.43;1.20;;;;;;;7.91;100.00;96498.72;5037030;28;20247;-66
2023/11/16 04:00:57;;;;;;;5.30;1.50;;;;;;;7.91;100.00;96491.66;5036925;28;20205;-66
2023/11/16 04:03:23;;;;;;;1.37;1.20;;;;;;;7.75;100.00;96480.25;5035512;28;20217;-66
2023/11/16 04:05:50;;;;;;;3.57;1.20;;;;;;;7.77;100.00;96467.81;5036703;28;20205;-66
2023/11/16 04:08:18;;;;;;;3.03;1.40;;;;;;;7.93;100.00;96473.97;5036658;28;20202;-67
2023/11/16 04:10:45;;;;;;;2.23;1.43;;;;;;;7.57;100.00;96468.97;5036009;28;20200;-66
2023/11/16 04:13:11;;;;;;;3.63;1.87;;;;;;;7.82;100.00;96468.16;5036442;28;20220;-66
2023/11/16 04:15:39;;;;;;;2.97;1.60;;;;;;;7.96;100.00;96462.34;5036391;28;20279;-65
2023/11/16 04:18:06;;;;;;;2.93;1.50;;;;;;;8.01;100.00;96460.06;5036428;28;20201;-67
2023/11/16 04:20:34;;;;;;;3.17;1.20;;;;;;;8.16;100.00;96458.53;5036440;28;21259;-66
2023/11/16 04:23:00;;;;;;;2.63;2.00;;;;;;;8.23;100.00;96459.56;5035974;28;20224;-66
2023/11/16 04:25:29;;;;;;;7.53;1.80;;;;;;;8.26;100.00;96459.22;5036142;28;20221;-66
2023/11/16 04:27:59;;;;;;;7.53;1.70;;;;;;;8.20;100.00;96458.06;5036646;28;20221;-65
2023/11/16 04:30:26;;;;;;;4.17;1.37;;;;;;;8.30;100.00;96455.31;5036619;28;20201;-66
2023/11/16 04:32:53;;;;;;;3.87;1.30;;;;;;;8.27;100.00;96458.25;5036417;28;20659;-67
2023/11/16 04:35:21;;;;;;;2.23;1.20;;;;;;;8.23;100.00;96446.44;5035420;28;21151;-67
2023/11/16 04:37:48;;;;;;;5.13;1.30;;;;;;;8.22;100.00;96442.16;5036692;28;20288;-66
2023/11/16 04:40:15;;;;;;;5.47;1.07;;;;;;;8.44;100.00;96446.84;5036100;28;20628;-67
2023/11/16 04:42:43;;;;;;;2.97;1.30;;;;;;;8.48;100.00;96438.50;5036175;28;20207;-66
2023/11/16 04:45:11;;;;;;;2.17;1.50;;;;;;;8.49;100.00;96443.59;5035320;28;20221;-67
2023/11/16 04:47:40;;;;;;;1.77;1.30;;;;;;;8.54;100.00;96446.56;5036872;28;20229;-65
2023/11/16 04:50:08;;;;;;;2.07;1.50;;;;;;;8.66;100.00;96454.97;5035293;28;20201;-66
2023/11/16 04:52:35;;;;;;;4.97;1.67;;;;;;;8.60;100.00;96443.31;5036593;28;20197;-67
2023/11/16 04:55:03;;;;;;;2.80;1.20;;;;;;;8.55;100.00;96442.97;5035967;28;20217;-66
2023/11/16 04:57:29;;;;;;;4.93;1.30;;;;;;;8.66;100.00;96447.91;5035522;28;20232;-66
2023/11/16 04:59:57;;;;;;;1.80;1.37;;;;;;;8.72;100.00;96451.72;5036431;28;20201;-67
2023/11/16 05:02:24;;;;;;;9.43;1.67;;;;;;;8.63;100.00;96450.00;5035985;28;20582;-66
2023/11/16 05:04:53;;;;;;;3.77;1.10;;;;;;;8.62;100.00;96445.75;5035049;28;20227;-67
2023/11/16 05:07:20;;;;;;;3.53;1.30;;;;;;;8.58;100.00;96442.63;5035513;28;20229;-66
2023/11/16 05:09:47;;;;;;;1.70;1.37;;;;;;;8.67;100.00;96444.28;5036378;28;20227;-67
2023/11/16 05:12:13;;;;;;;3.80;1.03;;;;;;;8.73;100.00;96437.56;5035576;28;20224;-66
2023/11/16 05:14:40;;;;;;;2.90;1.40;;;;;;;8.45;100.00;96443.22;5035267;28;20231;-67
2023/11/16 05:17:08;;;;;;;2.30;1.10;;;;;;;8.88;100.00;96446.47;5039668;28;20197;-66
2023/11/16 05:19:34;;;;;;;2.73;1.30;;;;;;;8.69;100.00;96442.34;5039860;28;20209;-66
2023/11/16 05:22:01;;;;;;;3.20;1.60;;;;;;;8.49;100.00;96437.53;5039554;28;20659;-67
2023/11/16 05:24:29;;;;;;;3.10;1.23;;;;;;;8.62;100.00;96430.81;5038583;28;20228;-67
2023/11/16 05:27:01;;;;;;;4.40;1.90;;;;;;;8.66;100.00;96426.88;5040171;28;20240;-66
2023/11/16 05:29:28;;;;;;;2.93;1.50;;;;;;;8.70;100.00;96427.38;5038907;28;20201;-67
2023/11/16 05:31:54;;;;;;;5.90;1.90;;;;;;;8.65;100.00;96414.72;5039403;28;20208;-65
2023/11/16 05:34:22;;;;;;;8.20;3.17;;;;;;;8.97;100.00;96411.34;5039393;28;20228;-67
2023/11/16 05:36:51;;;;;;;6.03;2.80;;;;;;;8.68;100.00;96418.84;5040093;28;20244;-66
2023/11/16 05:39:19;;;;;;;5.23;2.50;;;;;;;8.62;100.00;96414.25;5039602;28;20213;-66
2023/11/16 05:41:46;;;;;;;11.73;4.37;;;;;;;8.55;100.00;96419.31;5039368;28;20292;-67
2023/11/16 05:44:13;;;;;;;3.50;2.30;;;;;;;8.51;100.00;96415.38;5038397;28;20217;-66
2023/11/16 05:46:39;;;;;;;1.40;1.10;;;;;;;8.63;100.00;96400.94;5039636;28;20954;-66
2023/11/16 05:49:07;;;;;;;1.80;1.20;;;;;;;8.49;100.00;96408.63;5039922;28;20212;-66
2023/11/16 05:51:36;;;;;;;5.77;2.57;;;;;;;8.61;100.00;96407.34;5038492;28;20202;-66
2023/11/16 05:54:05;;;;;;;9.13;3.90;;;;;;;8.44;100.00;96410.06;5038348;28;20227;-67
2023/11/16 05:56:32;;;;;;;13.90;5.40;;;;;;;8.41;100.00;96410.41;5038861;28;20709;-66
2023/11/16 05:58:58;;;;;;;15.87;6.90;;;;;;;8.30;100.00;96408.06;5039389;28;20197;-66
2023/11/16 06:01:25;;;;;;;17.30;6.37;;;;;;;8.14;100.00;96408.81;5038608;28;20209;-67
2023/11/16 06:03:51;;;;;;;17.77;7.03;;;;;;;8.41;100.00;96397.28;5038972;28;20220;-66
2023/11/16 06:06:18;;;;;;;19.20;7.40;;;;;;;8.42;100.00;96388.41;5039058;28;20669;-66
2023/11/16 06:08:47;;;;;;;15.43;6.40;;;;;;;8.57;100.00;96385.81;5038961;28;20232;-67
2023/11/16 06:11:15;;;;;;;21.87;8.37;;;;;;;8.53;100.00;96374.00;5038178;28;20570;-67
2023/11/16 06:13:42;;;;;;;22.63;8.60;;;;;;;8.32;100.00;96382.47;5038287;28;20236;-66
2023/11/16 06:16:12;;;;;;;5.83;2.73;;;;;;;8.40;100.00;96393.00;5038785;28;20197;-67
2023/11/16 06:18:39;;;;;;;4.10;1.93;;;;;;;8.58;100.00;96386.66;5039107;28;20204;-67
2023/11/16 06:21:06;;;;;;;4.10;2.17;;;;;;;8.68;100.00;96388.16;5038895;28;20201;-67
2023/11/16 06:23:34;;;;;;;16.43;6.43;;;;;;;8.68;100.00;96380.28;5037851;28;20262;-66
2023/11/16 06:26:02;;;;;;;28.03;10.73;;;;;;;8.86;100.00;96375.69;5037573;28;20205;-66
2023/11/16 06:28:28;;;;;;;23.27;9.77;;;;;;;8.74;100.00;96376.97;5038172;28;20229;-65
2023/11/16 06:30:55;;;;;;;27.37;6.40;;;;;;;8.65;100.00;96385.03;5038109;28;20205;-67
2023/11/16 06:33:21;;;;;;;15.73;4.67;;;;;;;8.52;100.00;96377.59;5038229;28;20209;-66
2023/11/16 06:35:47;;;;;;;20.70;5.30;;;;;;;8.57;100.00;96377.94;5038084;28;20216;-65
2023/11/16 06:38:16;;;;;;;18.07;5.07;;;;;;;8.53;100.00;96363.50;5038983;28;20197;-66
2023/11/16 06:40:43;;;;;;;14.77;4.77;;;;;;;8.55;100.00;96360.69;5038444;28;20205;-67
2023/11/16 06:43:11;;;;;;;12.73;3.47;;;;;;;8.76;100.00;96354.00;5038108;28;20201;-66
2023/11/16 06:45:40;;;;;;;10.30;4.37;;;;;;;8.73;100.00;96349.09;5037840;28;20225;-66
2023/11/16 06:48:07;;;;;;;4.97;3.00;;;;;;;8.51;100.00;96336.59;5037463;28;20311;-66
2023/11/16 06:50:34;;;;;;;6.97;3.17;;;;;;;8.46;100.00;96339.84;5037134;28;20207;-67
2023/11/16 06:53:05;;;;;;;8.23;3.10;;;;;;;8.59;100.00;96344.47;5037258;28;20260;-66
2023/11/16 06:55:32;;;;;;;5.87;2.60;;;;;;;8.65;100.00;96349.06;5037517;28;20233;-66
2023/11/16 06:57:59;;;;;;;5.57;2.90;;;;;;;8.67;100.00;96344.47;5038155;28;20675;-66
2023/11/16 07:00:27;;;;;;;5.93;2.60;;;;;;;8.76;100.00;96342.69;5038127;28;20209;-65
2023/11/16 07:02:54;;;;;;;4.37;2.60;;;;;;;8.73;100.00;96351.72;5037763;28;20880;-66
2023/11/16 07:05:21;;;;;;;8.63;2.63;;;;;;;8.62;100.00;96346.75;5037313;28;20714;-66
2023/11/16 07:07:47;;;;;;;4.30;1.90;;;;;;;8.69;100.00;96345.16;5037968;28;20232;-66
2023/11/16 07:10:15;;;;;;;4.77;2.30;;;;;;;8.64;100.00;96344.81;5037442;28;20205;-66
2023/11/16 07:12:42;;;;;;;4.33;2.70;;;;;;;8.78;100.00;96338.91;5037989;28;20652;-66
2023/11/16 07:15:10;;;;;;;7.20;2.73;;;;;;;8.61;100.00;96341.69;5036738;28;20229;-66
2023/11/16 07:17:40;;;;;;;3.63;2.47;;;;;;;8.90;100.00;96337.59;5038144;28;20204;-66
2023/11/16 07:20:09;;;;;;;3.03;1.80;;;;;;;8.83;100.00;96333.97;5038289;28;20212;-66
2023/11/16 07:22:36;;;;;;;6.40;2.03;;;;;;;8.81;100.00;96333.31;5037772;28;20201;-66
2023/11/16 07:25:05;;;;;;;4.63;1.90;;;;;;;8.66;100.00;96321.81;5036953;28;20227;-65
2023/11/16 07:27:32;;;;;;;12.27;2.17;;;;;;;8.76;100.00;96316.41;5037411;28;20225;-66
2023/11/16 07:29:58;;;;;;;4.60;2.00;;;;;;;8.74;100.00;96318.38;5037781;28;20293;-66
2023/11/16 07:32:25;;;;;;;4.60;2.03;;;;;;;8.83;100.00;96320.00;5037551;28;20197;-66
2023/11/16 07:34:53;;;;;;;4.00;1.87;;;;;;;9.01;100.00;96321.47;5036744;28;21087;-65
2023/11/16 07:37:19;;;;;;;1.97;1.30;;;;;;;8.96;100.00;96315.06;5036873;28;20205;-65
2023/11/16 07:39:45;;;;;;;3.57;1.50;;;;;;;8.98;100.00;96323.63;5036861;28;20232;-66
2023/11/16 07:42:13;;;;;;;3.60;1.40;;;;;;;9.01;100.00;96324.09;5037260;28;20208;-66
2023/11/16 07:44:41;;;;;;;7.87;1.50;;;;;;;9.01;100.00;96318.03;5036278;28;20294;-66
2023/11/16 07:47:08;;;;;;;2.23;1.40;;;;;;;9.12;100.00;96316.69;5037039;28;20208;-66
2023/11/16 07:49:35;;;;;;;2.03;1.10;;;;;;;9.78;100.00;96312.75;5036759;28;20667;-66
2023/11/16 07:52:04;;;;;;;4.00;1.63;;;;;;;10.04;100.00;96302.81;5036519;28;20208;-66
2023/11/16 07:54:31;;;;;;;3.90;1.80;;;;;;;9.28;100.00;96308.00;5036513;28;20237;-66
2023/11/16 07:57:02;;;;;;;4.47;1.83;;;;;;;9.57;100.00;96305.59;5036438;28;20201;-66
2023/11/16 07:59:32;;;;;;;1.70;1.40;;;;;;;9.94;100.00;96291.66;5036864;28;20201;-67
2023/11/16 08:02:00;;;;;;;3.20;1.70;;;;;;;9.91;100.00;96294.59;5035890;28;21050;-66
2023/11/16 08:04:26;;;;;;;5.20;1.90;;;;;;;9.65;100.00;96289.78;5035902;28;20229;-66
2023/11/16 08:06:54;;;;;;;3.50;1.80;;;;;;;9.50;100.00;96289.69;5035941;28;20258;-66
2023/11/16 08:09:23;;;;;;;2.97;1.80;;;;;;;9.66;100.00;96289.63;5035865;28;20448;-66
2023/11/16 08:11:53;;;;;;;4.03;1.60;;;;;;;9.44;100.00;96287.72;5034724;28;20366;-66
2023/11/16 08:14:21;;;;;;;5.17;1.70;;;;;;;9.50;100.00;96292.31;5035831;28;20572;-66
2023/11/16 08:16:49;;;;;;;3.33;1.20;;;;;;;9.66;100.00;96292.28;5036471;28;20205;-66
2023/11/16 08:19:16;;;;;;;5.53;2.00;;;;;;;9.88;100.00;96287.06;5035630;28;20298;-66
2023/11/16 08:21:43;;;;;;;5.37;1.90;;;;;;;9.68;100.00;96292.91;5035458;28;20201;-67
2023/11/16 08:24:14;;;;;;;4.33;1.80;;;;;;;9.71;100.00;96289.91;5035403;28;20956;-66
2023/11/16 08:26:42;;;;;;;2.83;1.63;;;;;;;9.86;100.00;96275.91;5035021;28;20205;-67
2023/11/16 08:29:09;;;;;;;3.97;1.50;;;;;;;9.72;100.00;96266.09;5035307;28;20687;-66
2023/11/16 08:31:36;;;;;;;4.90;1.40;;;;;;;9.57;100.00;96276.66;5036108;28;20215;-66
2023/11/16 08:34:04;;;;;;;7.87;1.70;;;;;;;9.65;100.00;96268.72;5035093;28;20221;-66
2023/11/16 08:36:31;;;;;;;1.90;1.40;;;;;;;9.74;100.00;96260.66;5035498;28;20208;-66
2023/11/16 08:38:58;;;;;;;1.47;1.23;;;;;;;9.70;100.00;96252.28;5035752;28;20656;-66
2023/11/16 08:41:25;;;;;;;3.63;1.50;;;;;;;9.94;100.00;96244.28;5033349;28;20569;-67
2023/11/16 08:43:54;;;;;;;3.93;1.90;;;;;;;9.39;100.00;96247.13;5035033;28;20225;-66
2023/11/16 08:46:24;;;;;;;5.47;1.20;;;;;;;9.34;100.00;96246.81;5035248;28;20208;-67
2023/11/16 08:48:51;;;;;;;8.10;2.07;;;;;;;9.70;100.00;96231.22;5034806;28;20651;-66
2023/11/16 08:51:18;;;;;;;3.00;1.57;;;;;;;9.81;100.00;96230.84;5035014;28;20193;-66
2023/11/16 08:53:46;;;;;;;2.13;1.07;;;;;;;9.87;100.00;96224.88;5034694;28;20217;-66
2023/11/16 08:56:14;;;;;;;5.33;1.47;;;;;;;9.97;100.00;96211.56;5034483;28;20208;-67
2023/11/16 08:58:47;;;;;;;7.43;2.23;;;;;;;9.65;100.00;96213.50;5034788;28;20694;-65
2023/11/16 09:01:17;;;;;;;3.50;2.00;;;;;;;9.83;100.00;96197.28;5036115;28;20205;-66
2023/11/16 09:03:45;;;;;;;4.20;1.87;;;;;;;9.75;100.00;96201.78;5035437;28;20221;-67
2023/11/16 09:06:16;;;;;;;5.47;2.13;;;;;;;9.80;100.00;96192.38;5035499;28;20262;-66
2023/11/16 09:08:42;;;;;;;6.30;1.80;;;;;;;9.72;100.00;96191.59;5036108;28;20228;-67
2023/11/16 09:11:09;;;;;;;4.03;1.90;;;;;;;10.08;100.00;96177.75;5035450;28;20205;-67
2023/11/16 09:13:36;;;;;;;8.53;3.03;;;;;;;9.93;100.00;96173.38;5035753;28;20201;-67
2023/11/16 09:16:05;;;;;;;4.37;2.03;;;;;;;10.03;100.00;96176.63;5035248;28;20205;-67
2023/11/16 09:18:33;;;;;;;3.70;2.00;;;;;;;10.31;100.00;96168.03;5035467;28;20205;-67
2023/11/16 09:21:02;;;;;;;2.67;1.80;;;;;;;10.31;100.00;96170.66;5035562;28;20215;-67
2023/11/16 09:23:29;;;;;;;4.53;1.30;;;;;;;10.30;100.00;96166.38;5035820;28;20205;-67
2023/11/16 09:25:57;;;;;;;5.40;1.70;;;;;;;10.18;100.00;96170.41;5035426;28;20217;-67
2023/11/16 09:28:23;;;;;;;3.53;1.50;;;;;;;10.13;100.00;96154.34;5035437;28;20676;-67
2023/11/16 09:30:50;;;;;;;8.23;2.03;;;;;;;10.32;100.00;96153.84;5035785;28;20205;-67
2023/11/16 09:33:18;;;;;;;3.83;1.73;;;;;;;10.24;100.00;96155.75;5035354;28;20225;-67
2023/11/16 09:35:46;;;;;;;3.23;1.83;;;;;;;10.28;100.00;96157.84;5034523;28;20220;-67
2023/11/16 09:38:13;;;;;;;2.33;1.50;;;;;;;10.20;100.00;96154.47;5036023;28;20202;-67
2023/11/16 09:40:39;;;;;;;5.80;1.63;;;;;;;10.39;100.00;96146.88;5035839;28;20690;-67
2023/11/16 09:43:21;;;;;;;3.80;2.20;;;;;;;10.20;100.00;96155.25;5035118;28;20197;-67
2023/11/16 09:45:48;;;;;;;4.20;1.77;;;;;;;10.24;100.00;96146.00;5035470;28;20201;-68
2023/11/16 09:48:15;;;;;;;5.60;1.90;;;;;;;10.60;100.00;96139.09;5036202;28;21035;-67
2023/11/16 09:50:44;;;;;;;4.13;1.87;;;;;;;10.55;100.00;96147.56;5035270;28;20205;-65
2023/11/16 09:53:16;;;;;;;3.03;1.73;;;;;;;10.91;100.00;96137.13;5035063;28;20201;-65
2023/11/16 09:55:46;;;;;;;2.07;1.43;;;;;;;10.73;100.00;96139.31;5034044;28;20205;-66
2023/11/16 09:58:17;;;;;;;4.00;1.77;;;;;;;10.64;100.00;96140.38;5034312;28;20198;-68
2023/11/16 10:00:48;;;;;;;7.03;2.40;;;;;;;10.83;100.00;96137.22;5034328;28;20217;-68
2023/11/16 10:03:24;;;;;;;3.10;1.67;;;;;;;10.98;100.00;96137.06;5040445;28;20209;-67
2023/11/16 10:05:53;;;;;;;6.53;2.87;;;;;;;10.98;100.00;96137.06;5038566;28;20219;-67
2023/11/16 10:08:21;;;;;;;9.20;4.60;;;;;;;10.96;100.00;96127.69;5038651;28;20261;-68
2023/11/16 10:11:00;;;;;;;4.40;2.20;;;;;;;11.27;100.00;96123.84;5038291;28;20208;-67
2023/11/16 10:13:27;;;;;;;6.23;1.90;;;;;;;11.03;100.00;96113.59;5038619;28;20205;-68
2023/11/16 10:15:55;;;;;;;4.63;1.87;;;;;;;10.99;100.00;96107.03;5038275;28;20237;-68
2023/11/16 10:18:22;;;;;;;5.40;2.40;;;;;;;10.69;100.00;96101.13;5039126;28;20212;-65
2023/11/16 10:20:49;;;;;;;4.17;2.47;;;;;;;11.09;100.00;96097.03;5038211;28;20200;-66
2023/11/16 10:23:16;;;;;;;4.70;2.07;;;;;;;10.99;100.00;96090.41;5038949;28;20259;-68
2023/11/16 10:25:47;;;;;;;7.50;1.87;;;;;;;11.21;100.00;96081.56;5038344;28;20208;-67
2023/11/16 10:28:15;;;;;;;4.13;1.70;;;;;;;11.27;100.00;96073.72;5039459;28;20225;-67
2023/11/16 10:30:43;;;;;;;2.67;1.70;;;;;;;11.42;100.00;96066.63;5039173;28;20278;-68
2023/11/16 10:33:11;;;;;;;3.37;1.80;;;;;;;11.54;100.00;96057.22;5040343;28;20215;-67
2023/11/16 10:35:40;;;;;;;3.67;1.63;;;;;;;11.58;100.00;96046.13;5039418;28;20217;-68
2023/11/16 10:38:09;;;;;;;4.13;1.30;;;;;;;11.19;100.00;96042.19;5039168;28;20284;-66
2023/11/16 10:40:37;;;;;;;2.77;1.27;;;;;;;11.25;100.00;96036.19;5038616;28;20266;-67
2023/11/16 10:43:08;;;;;;;2.53;1.57;;;;;;;11.52;100.00;96030.22;5038611;28;20200;-68
2023/11/16 10:45:35;;;;;;;2.03;1.50;;;;;;;11.64;100.00;96036.63;5037735;28;20224;-68
2023/11/16 10:48:02;;;;;;;3.93;1.43;;;;;;;11.62;100.00;96026.25;5038333;28;20311;-65
2023/11/16 10:50:29;;;;;;;6.30;1.80;;;;;;;11.29;100.00;96003.16;5038473;28;20205;-67
2023/11/16 10:52:57;;;;;;;5.57;1.50;;;;;;;11.28;100.00;95992.81;5037679;28;20198;-67
2023/11/16 10:55:28;;;;;;;2.60;1.77;;;;;;;11.40;100.00;95989.47;5035988;28;20592;-66
2023/11/16 10:58:04;;;;;;;3.17;1.73;;;;;;;11.74;100.00;95971.94;5038286;28;20251;-68
2023/11/16 11:00:34;;;;;;;11.60;3.10;;;;;;;11.72;100.00;95965.22;5038607;28;20923;-65
2023/11/16 11:03:03;;;;;;;3.70;1.53;;;;;;;11.59;100.00;95959.84;5038986;28;20209;-66
2023/11/16 11:05:31;;;;;;;2.00;1.43;;;;;;;11.52;100.00;95950.22;5038051;28;20260;-67
2023/11/16 11:07:58;;;;;;;1.63;1.13;;;;;;;11.42;100.00;95934.69;5040261;28;20193;-67
2023/11/16 11:10:27;;;;;;;5.20;1.80;;;;;;;11.16;100.00;95939.72;5039384;28;20225;-67
2023/11/16 11:12:56;;;;;;;3.87;1.60;;;;;;;11.45;100.00;95929.03;5039635;28;20197;-67
2023/11/16 11:15:29;;;;;;;6.23;1.67;;;;;;;11.78;100.00;95922.25;5039714;28;20221;-68
2023/11/16 11:17:58;;;;;;;14.67;2.17;;;;;;;11.59;100.00;95914.97;5040037;28;20210;-68
2023/11/16 11:20:32;;;;;;;12.37;3.07;;;;;;;11.24;100.00;95907.13;5040198;28;20251;-67
2023/11/16 11:23:10;;;;;;;3.10;2.03;;;;;;;11.68;100.00;95893.56;5039915;28;20201;-68
2023/11/16 11:25:37;;;;;;;7.97;2.37;;;;;;;10.93;100.00;95890.78;5038641;28;20228;-67
2023/11/16 11:28:05;;;;;;;7.43;3.60;;;;;;;11.16;100.00;95880.88;5039581;28;20197;-68
2023/11/16 11:30:32;;;;;;;5.10;2.47;;;;;;;11.49;100.00;95872.22;5038898;28;20228;-67
2023/11/16 11:33:07;;;;;;;2.97;1.70;;;;;;;11.55;100.00;95865.44;5040082;28;20233;-65
2023/11/16 11:35:35;;;;;;;2.80;1.60;;;;;;;11.58;100.00;95855.28;5038794;28;20220;-67